Time;durP1;ratioP1;P1;durP2;ratioP2;P2;SDS_P1;SDS_P2;PMS_P1;PMS_P2;Temp;Humidity;BMP_temperature;BMP_pressure;BME280_temperature;BME280_humidity;BME280_pressure;Samples;Min_cycle;Max_cycle;Signal;HPM_P1;HPM_P2
2023/08/19 00:01:12;;;;;;;;;;;25.70;61.60;;;;;;5095722;28;20011;-58
2023/08/19 00:03:39;;;;;;;;;;;25.70;61.60;;;;;;5095285;28;20380;-58
2023/08/19 00:06:07;;;;;;;;;;;25.70;61.60;;;;;;5095906;28;19947;-58
2023/08/19 00:08:34;;;;;;;;;;;25.70;61.60;;;;;;5094151;28;20384;-58
2023/08/19 00:11:02;;;;;;;;;;;25.70;61.60;;;;;;5095656;28;19969;-58
2023/08/19 00:13:30;;;;;;;;;;;25.70;61.60;;;;;;5095617;28;19928;-58
2023/08/19 00:15:57;;;;;;;;;;;25.70;61.60;;;;;;5095095;28;19924;-58
2023/08/19 00:18:24;;;;;;;;;;;25.70;61.60;;;;;;5095286;28;19924;-58
2023/08/19 00:20:51;;;;;;;;;;;25.60;61.50;;;;;;5094949;28;19924;-58
2023/08/19 00:23:18;;;;;;;;;;;25.60;61.50;;;;;;5095059;28;20380;-61
2023/08/19 00:25:45;;;;;;;;;;;25.70;61.60;;;;;;5093012;28;20485;-58
2023/08/19 00:28:12;;;;;;;;;;;25.60;61.50;;;;;;5095213;28;19924;-58
2023/08/19 00:30:39;;;;;;;;;;;25.70;61.60;;;;;;5095039;28;19954;-58
2023/08/19 00:33:06;;;;;;;;;;;25.70;61.50;;;;;;5094829;28;19966;-58
2023/08/19 00:35:33;;;;;;;;;;;25.70;61.50;;;;;;5095061;28;19924;-59
2023/08/19 00:38:00;;;;;;;;;;;25.70;61.50;;;;;;5094696;28;19996;-59
2023/08/19 00:40:27;;;;;;;;;;;25.70;61.50;;;;;;5094639;28;20019;-59
2023/08/19 00:42:54;;;;;;;;;;;25.70;61.40;;;;;;5094731;28;20337;-59
2023/08/19 00:45:21;;;;;;;;;;;25.70;61.40;;;;;;5094897;28;19978;-59
2023/08/19 00:47:48;;;;;;;;;;;25.70;61.40;;;;;;5093872;28;19924;-59
2023/08/19 00:50:15;;;;;;;;;;;25.70;61.40;;;;;;5094805;28;20014;-59
2023/08/19 00:52:43;;;;;;;;;;;25.70;61.40;;;;;;5094549;28;20328;-59
2023/08/19 00:55:10;;;;;;;;;;;25.70;61.30;;;;;;5094951;28;20015;-59
2023/08/19 00:57:37;;;;;;;;;;;25.70;61.30;;;;;;5094678;28;19931;-59
2023/08/19 01:00:05;;;;;;;;;;;25.70;61.30;;;;;;5093097;28;19932;-59
2023/08/19 01:02:32;;;;;;;;;;;25.70;61.30;;;;;;5094096;28;20325;-59
2023/08/19 01:04:59;;;;;;;;;;;25.70;61.30;;;;;;5093277;28;20295;-59
2023/08/19 01:07:40;;;;;;;;;;;25.70;61.30;;;;;;5093951;28;19954;-60
2023/08/19 01:10:12;;;;;;;;;;;25.70;61.30;;;;;;5093817;28;20011;-59
2023/08/19 01:12:46;;;;;;;;;;;25.70;61.30;;;;;;5094175;28;19946;-59
2023/08/19 01:15:17;;;;;;;;;;;25.70;61.30;;;;;;5094478;28;20338;-59
2023/08/19 01:17:45;;;;;;;;;;;25.70;61.30;;;;;;5094464;28;19994;-59
2023/08/19 01:20:13;;;;;;;;;;;25.70;61.30;;;;;;5094377;28;19924;-59
2023/08/19 01:22:49;;;;;;;;;;;25.70;61.30;;;;;;5093935;28;20376;-59
2023/08/19 01:25:18;;;;;;;;;;;25.70;61.30;;;;;;5093739;28;20014;-59
2023/08/19 01:27:45;;;;;;;;;;;25.70;61.30;;;;;;5094235;28;19974;-59
2023/08/19 01:30:12;;;;;;;;;;;25.70;61.30;;;;;;5093742;28;19924;-59
2023/08/19 01:32:39;;;;;;;;;;;25.70;61.30;;;;;;5093774;28;19975;-59
2023/08/19 01:35:06;;;;;;;;;;;25.70;61.30;;;;;;5093943;28;19928;-59
2023/08/19 01:37:53;;;;;;;;;;;25.60;61.30;;;;;;5093733;28;20003;-59
2023/08/19 01:40:22;;;;;;;;;;;25.70;61.30;;;;;;5093658;28;19931;-59
2023/08/19 01:42:49;;;;;;;;;;;25.70;61.40;;;;;;5093575;28;19986;-59
2023/08/19 01:45:16;;;;;;;;;;;25.60;61.30;;;;;;5093321;28;19924;-59
2023/08/19 01:47:44;;;;;;;;;;;25.60;61.30;;;;;;5093835;28;19924;-59
2023/08/19 01:50:11;;;;;;;;;;;25.60;61.60;;;;;;5093878;28;19967;-59
2023/08/19 01:52:38;;;;;;;;;;;25.70;61.40;;;;;;5093507;28;19966;-59
2023/08/19 01:55:05;;;;;;;;;;;25.60;61.30;;;;;;5093857;28;19931;-59
2023/08/19 01:57:32;;;;;;;;;;;25.70;61.40;;;;;;5093092;28;20281;-59
2023/08/19 01:59:59;;;;;;;;;;;25.70;61.30;;;;;;5092557;28;20368;-59
2023/08/19 02:02:26;;;;;;;;;;;25.60;61.30;;;;;;5093373;28;19924;-60
2023/08/19 02:04:53;;;;;;;;;;;25.70;61.40;;;;;;5093406;28;19924;-59
2023/08/19 02:07:20;;;;;;;;;;;25.60;61.30;;;;;;5093337;28;19930;-59
2023/08/19 02:09:47;;;;;;;;;;;25.60;61.30;;;;;;5093664;28;19950;-59
2023/08/19 02:12:14;;;;;;;;;;;25.60;61.30;;;;;;5093050;28;19928;-59
2023/08/19 02:14:41;;;;;;;;;;;25.60;61.30;;;;;;5092956;28;19924;-59
2023/08/19 02:17:08;;;;;;;;;;;25.60;61.30;;;;;;5093527;28;19932;-59
2023/08/19 02:19:35;;;;;;;;;;;25.60;61.30;;;;;;5093760;28;20011;-59
2023/08/19 02:22:02;;;;;;;;;;;25.60;61.30;;;;;;5092710;28;19924;-59
2023/08/19 02:24:29;;;;;;;;;;;25.60;61.30;;;;;;5093148;28;20067;-59
2023/08/19 02:26:56;;;;;;;;;;;25.60;61.30;;;;;;5093079;28;20327;-59
2023/08/19 02:29:23;;;;;;;;;;;25.60;61.30;;;;;;5093252;28;19977;-59
2023/08/19 02:31:50;;;;;;;;;;;25.60;61.30;;;;;;5092774;28;19924;-59
2023/08/19 02:34:17;;;;;;;;;;;25.60;61.30;;;;;;5092894;28;20383;-59
2023/08/19 02:36:44;;;;;;;;;;;25.60;61.30;;;;;;5092878;28;19932;-59
2023/08/19 02:39:11;;;;;;;;;;;25.60;61.30;;;;;;5093078;28;19963;-59
2023/08/19 02:41:38;;;;;;;;;;;25.60;61.30;;;;;;5092304;28;19924;-59
2023/08/19 02:44:05;;;;;;;;;;;25.60;61.30;;;;;;5091833;28;19930;-59
2023/08/19 02:46:32;;;;;;;;;;;25.60;61.20;;;;;;5093018;28;20372;-59
2023/08/19 02:48:59;;;;;;;;;;;25.70;61.30;;;;;;5093952;28;19924;-58
2023/08/19 02:51:27;;;;;;;;;;;25.60;61.20;;;;;;5096737;28;20283;-59
2023/08/19 02:53:53;;;;;;;;;;;25.60;61.20;;;;;;5097025;28;20372;-59
2023/08/19 02:56:20;;;;;;;;;;;25.60;61.20;;;;;;5097442;28;19928;-60
2023/08/19 02:58:47;;;;;;;;;;;25.70;61.20;;;;;;5097266;28;20314;-59
2023/08/19 03:01:14;;;;;;;;;;;25.70;61.20;;;;;;5096751;28;20023;-59
2023/08/19 03:03:42;;;;;;;;;;;25.60;61.10;;;;;;5096718;28;19970;-59
2023/08/19 03:06:08;;;;;;;;;;;25.70;61.10;;;;;;5096585;28;20322;-59
2023/08/19 03:08:35;;;;;;;;;;;25.70;61.10;;;;;;5096725;28;20019;-59
2023/08/19 03:11:02;;;;;;;;;;;25.70;61.10;;;;;;5096447;28;19977;-59
2023/08/19 03:13:30;;;;;;;;;;;25.70;61.10;;;;;;5097125;28;19924;-59
2023/08/19 03:16:00;;;;;;;;;;;25.70;61.10;;;;;;5095661;28;20213;-59
2023/08/19 03:18:27;;;;;;;;;;;25.60;61.00;;;;;;5096711;28;20330;-59
2023/08/19 03:20:58;;;;;;;;;;;25.70;61.10;;;;;;5096716;28;19998;-59
2023/08/19 03:23:25;;;;;;;;;;;25.70;61.10;;;;;;5096313;28;19935;-59
2023/08/19 03:25:53;;;;;;;;;;;25.70;61.00;;;;;;5096428;28;19930;-59
2023/08/19 03:28:20;;;;;;;;;;;25.70;61.00;;;;;;5096431;28;19924;-59
2023/08/19 03:30:47;;;;;;;;;;;25.70;61.00;;;;;;5096163;28;19924;-59
2023/08/19 03:33:14;;;;;;;;;;;25.60;61.00;;;;;;5096516;28;19962;-59
2023/08/19 03:35:41;;;;;;;;;;;25.60;61.00;;;;;;5095884;28;19970;-59
2023/08/19 03:38:08;;;;;;;;;;;25.60;61.00;;;;;;5095744;28;19925;-59
2023/08/19 03:40:35;;;;;;;;;;;25.70;61.10;;;;;;5095810;28;19928;-59
2023/08/19 03:43:03;;;;;;;;;;;25.60;61.00;;;;;;5095679;28;19924;-59
2023/08/19 03:45:32;;;;;;;;;;;25.60;61.10;;;;;;5095787;28;19924;-59
2023/08/19 03:47:59;;;;;;;;;;;25.60;61.10;;;;;;5095705;28;19932;-59
2023/08/19 03:50:26;;;;;;;;;;;25.60;61.00;;;;;;5096318;28;19924;-59
2023/08/19 03:52:53;;;;;;;;;;;25.60;61.10;;;;;;5095925;28;19924;-60
2023/08/19 03:55:21;;;;;;;;;;;25.60;61.10;;;;;;5094809;28;20445;-59
2023/08/19 03:57:48;;;;;;;;;;;25.60;61.10;;;;;;5095575;28;19928;-59
2023/08/19 04:00:15;;;;;;;;;;;25.60;61.10;;;;;;5095242;28;19975;-59
2023/08/19 04:02:42;;;;;;;;;;;25.60;61.10;;;;;;5095639;28;19924;-59
2023/08/19 04:05:10;;;;;;;;;;;25.60;61.10;;;;;;5095025;28;19969;-59
2023/08/19 04:07:37;;;;;;;;;;;25.60;61.10;;;;;;5095241;28;19924;-59
2023/08/19 04:10:05;;;;;;;;;;;25.60;61.10;;;;;;5094994;28;19963;-59
2023/08/19 04:12:32;;;;;;;;;;;25.60;61.10;;;;;;5095148;28;19970;-59
2023/08/19 04:14:59;;;;;;;;;;;25.60;61.10;;;;;;5095469;28;19924;-59
2023/08/19 04:17:26;;;;;;;;;;;25.60;61.10;;;;;;5094250;28;20038;-59
2023/08/19 04:19:53;;;;;;;;;;;25.60;61.10;;;;;;5095299;28;19930;-59
2023/08/19 04:22:20;;;;;;;;;;;25.60;61.10;;;;;;5095031;28;19932;-59
2023/08/19 04:24:50;;;;;;;;;;;25.60;61.10;;;;;;5093911;28;19924;-59
2023/08/19 04:27:18;;;;;;;;;;;25.60;61.10;;;;;;5094426;28;19924;-59
2023/08/19 04:29:45;;;;;;;;;;;25.60;61.10;;;;;;5094749;28;19923;-59
2023/08/19 04:32:13;;;;;;;;;;;25.60;61.00;;;;;;5094340;28;19931;-59
2023/08/19 04:34:40;;;;;;;;;;;25.60;61.00;;;;;;5094846;28;20035;-59
2023/08/19 04:37:08;;;;;;;;;;;25.60;61.00;;;;;;5095064;28;19978;-59
2023/08/19 04:39:37;;;;;;;;;;;25.50;61.30;;;;;;5094784;28;19928;-59
2023/08/19 04:42:04;;;;;;;;;;;25.40;61.70;;;;;;5094884;28;20278;-58
2023/08/19 04:44:31;;;;;;;;;;;25.30;61.50;;;;;;5094584;28;19924;-58
2023/08/19 04:46:58;;;;;;;;;;;25.10;59.30;;;;;;5094661;28;19924;-58
2023/08/19 04:49:25;;;;;;;;;;;24.80;57.00;;;;;;5094700;28;19928;-58
2023/08/19 04:51:52;;;;;;;;;;;24.50;54.90;;;;;;5094869;28;19924;-58
2023/08/19 04:54:19;;;;;;;;;;;24.30;53.80;;;;;;5094719;28;20429;-58
2023/08/19 04:56:46;;;;;;;;;;;24.00;52.70;;;;;;5094481;28;20376;-58
2023/08/19 04:59:14;;;;;;;;;;;23.70;52.10;;;;;;5095061;28;20319;-58
2023/08/19 05:01:41;;;;;;;;;;;23.40;51.70;;;;;;5094436;28;19939;-58
2023/08/19 05:04:08;;;;;;;;;;;23.10;51.70;;;;;;5093100;28;19946;-58
2023/08/19 05:06:36;;;;;;;;;;;22.90;53.50;;;;;;5094721;28;20261;-58
2023/08/19 05:09:03;;;;;;;;;;;22.60;52.60;;;;;;5094130;28;19931;-58
2023/08/19 05:11:30;;;;;;;;;;;22.40;51.50;;;;;;5093203;28;19924;-58
2023/08/19 05:13:57;;;;;;;;;;;22.10;51.40;;;;;;5092977;28;19924;-58
2023/08/19 05:16:24;;;;;;;;;;;21.80;51.80;;;;;;5093400;28;19997;-58
2023/08/19 05:19:03;;;;;;;;;;;21.60;51.20;;;;;;5094179;28;19946;-58
2023/08/19 05:21:30;;;;;;;;;;;21.40;52.70;;;;;;5094208;28;19924;-58
2023/08/19 05:23:57;;;;;;;;;;;21.20;53.00;;;;;;5094003;28;20030;-58
2023/08/19 05:26:24;;;;;;;;;;;21.00;53.10;;;;;;5094335;28;19927;-58
2023/08/19 05:28:51;;;;;;;;;;;20.90;54.40;;;;;;5094669;28;19928;-58
2023/08/19 05:31:21;;;;;;;;;;;20.70;53.90;;;;;;5093956;28;20015;-59
2023/08/19 05:33:48;;;;;;;;;;;20.60;53.90;;;;;;5092273;28;19924;-58
2023/08/19 05:36:15;;;;;;;;;;;20.50;54.50;;;;;;5093416;28;20361;-59
2023/08/19 05:38:42;;;;;;;;;;;20.40;54.50;;;;;;5093679;28;19935;-58
2023/08/19 05:41:09;;;;;;;;;;;20.30;54.90;;;;;;5093023;28;19928;-60
2023/08/19 05:43:36;;;;;;;;;;;20.20;55.30;;;;;;5093522;28;19975;-58
2023/08/19 05:46:07;;;;;;;;;;;20.10;56.10;;;;;;5093216;28;19970;-59
2023/08/19 05:48:34;;;;;;;;;;;20.00;55.70;;;;;;5093792;28;20007;-59
2023/08/19 05:51:01;;;;;;;;;;;20.00;55.70;;;;;;5092706;28;19924;-59
2023/08/19 05:53:28;;;;;;;;;;;19.90;59.00;;;;;;5094147;28;20285;-59
2023/08/19 05:55:55;;;;;;;;;;;19.80;58.10;;;;;;5092862;28;19928;-59
2023/08/19 05:58:22;;;;;;;;;;;19.60;61.90;;;;;;5093999;28;19924;-59
2023/08/19 06:00:55;;;;;;;;;;;19.50;56.60;;;;;;5092912;28;19978;-59
2023/08/19 06:03:22;;;;;;;;;;;19.40;57.80;;;;;;5092898;28;19924;-59
2023/08/19 06:05:50;;;;;;;;;;;19.30;62.00;;;;;;5092759;28;19928;-59
2023/08/19 06:08:17;;;;;;;;;;;19.30;61.70;;;;;;5093090;28;19977;-59
2023/08/19 06:10:44;;;;;;;;;;;19.20;63.30;;;;;;5093234;28;19931;-59
2023/08/19 06:13:11;;;;;;;;;;;19.10;63.90;;;;;;5093446;28;20376;-59
2023/08/19 06:15:39;;;;;;;;;;;19.10;63.10;;;;;;5093611;28;19971;-59
2023/08/19 06:18:06;;;;;;;;;;;19.00;63.90;;;;;;5093813;28;19970;-59
2023/08/19 06:20:33;;;;;;;;;;;18.90;64.60;;;;;;5093360;28;19924;-58
2023/08/19 06:23:00;;;;;;;;;;;18.90;63.60;;;;;;5094150;28;19924;-59
2023/08/19 06:25:27;;;;;;;;;;;18.90;64.40;;;;;;5096945;28;20338;-59
2023/08/19 06:27:54;;;;;;;;;;;18.90;63.40;;;;;;5097466;28;19924;-59
2023/08/19 06:30:21;;;;;;;;;;;18.90;65.50;;;;;;5096895;28;20376;-59
2023/08/19 06:32:48;;;;;;;;;;;18.90;63.80;;;;;;5097491;28;19927;-58
2023/08/19 06:35:16;;;;;;;;;;;18.90;65.00;;;;;;5097067;28;19928;-59
2023/08/19 06:37:45;;;;;;;;;;;18.90;65.40;;;;;;5097614;28;20437;-59
2023/08/19 06:40:13;;;;;;;;;;;18.90;65.20;;;;;;5095843;28;19975;-59
2023/08/19 06:42:41;;;;;;;;;;;18.80;65.50;;;;;;5097208;28;19971;-59
2023/08/19 06:45:10;;;;;;;;;;;18.90;65.80;;;;;;5096663;28;19931;-59
2023/08/19 06:47:37;;;;;;;;;;;18.90;65.60;;;;;;5097212;28;19924;-59
2023/08/19 06:50:05;;;;;;;;;;;18.80;65.90;;;;;;5096655;28;19924;-59
2023/08/19 06:52:32;;;;;;;;;;;18.80;66.00;;;;;;5097387;28;20011;-59
2023/08/19 06:54:59;;;;;;;;;;;18.80;65.80;;;;;;5096520;28;19924;-59
2023/08/19 06:57:32;;;;;;;;;;;18.80;66.20;;;;;;5096880;28;20065;-59
2023/08/19 07:00:03;;;;;;;;;;;18.80;66.80;;;;;;5096997;28;20019;-59
2023/08/19 07:02:34;;;;;;;;;;;18.80;66.70;;;;;;5096726;28;19931;-59
2023/08/19 07:05:01;;;;;;;;;;;18.80;65.70;;;;;;5096234;28;19924;-59
2023/08/19 07:07:29;;;;;;;;;;;18.70;66.60;;;;;;5096184;28;19974;-59
2023/08/19 07:09:56;;;;;;;;;;;18.80;66.30;;;;;;5097100;28;19931;-58
2023/08/19 07:12:23;;;;;;;;;;;18.80;66.00;;;;;;5096409;28;19928;-59
2023/08/19 07:14:51;;;;;;;;;;;18.80;66.30;;;;;;5096586;28;19981;-59
2023/08/19 07:17:22;;;;;;;;;;;18.80;66.30;;;;;;5096297;28;20818;-59
2023/08/19 07:19:52;;;;;;;;;;;18.80;65.20;;;;;;5096567;28;20295;-59
2023/08/19 07:22:21;;;;;;;;;;;18.70;65.50;;;;;;5096696;28;20011;-59
2023/08/19 07:24:50;;;;;;;;;;;18.70;65.90;;;;;;5096068;28;19958;-58
2023/08/19 07:27:20;;;;;;;;;;;18.70;64.80;;;;;;5096559;28;19935;-59
2023/08/19 07:29:51;;;;;;;;;;;18.80;66.30;;;;;;5095993;28;19970;-59
2023/08/19 07:32:20;;;;;;;;;;;18.80;65.30;;;;;;5095876;28;20324;-58
2023/08/19 07:34:47;;;;;;;;;;;18.80;65.70;;;;;;5095250;28;19924;-59
2023/08/19 07:37:14;;;;;;;;;;;18.80;64.90;;;;;;5096303;28;19924;-59
2023/08/19 07:39:41;;;;;;;;;;;18.80;65.70;;;;;;5094784;28;19925;-59
2023/08/19 07:42:08;;;;;;;;;;;18.80;65.00;;;;;;5095771;28;19967;-58
2023/08/19 07:44:35;;;;;;;;;;;18.80;65.70;;;;;;5094657;28;19924;-59
2023/08/19 07:47:01;;;;;;;;;;;18.80;66.10;;;;;;5095796;28;20015;-59
2023/08/19 07:49:28;;;;;;;;;;;18.90;66.10;;;;;;5096022;28;19960;-58
2023/08/19 07:51:55;;;;;;;;;;;18.80;66.60;;;;;;5096227;28;19993;-59
2023/08/19 07:54:22;;;;;;;;;;;18.80;66.00;;;;;;5095654;28;19973;-59
2023/08/19 07:56:53;;;;;;;;;;;18.90;66.00;;;;;;5095685;28;20374;-59
2023/08/19 07:59:21;;;;;;;;;;;18.90;64.80;;;;;;5095740;28;20364;-59
2023/08/19 08:01:49;;;;;;;;;;;18.90;65.20;;;;;;5095154;28;19931;-59
2023/08/19 08:04:16;;;;;;;;;;;18.90;64.70;;;;;;5095968;28;20332;-59
2023/08/19 08:06:45;;;;;;;;;;;18.90;64.60;;;;;;5095888;28;19924;-59
2023/08/19 08:09:12;;;;;;;;;;;18.90;65.80;;;;;;5095759;28;19924;-59
2023/08/19 08:11:39;;;;;;;;;;;18.90;65.90;;;;;;5094913;28;19924;-59
2023/08/19 08:14:08;;;;;;;;;;;18.90;65.80;;;;;;5095747;28;19950;-59
2023/08/19 08:16:35;;;;;;;;;;;18.90;65.10;;;;;;5094537;28;20014;-60
2023/08/19 08:19:02;;;;;;;;;;;18.90;65.30;;;;;;5095428;28;19924;-59
2023/08/19 08:21:29;;;;;;;;;;;19.00;66.20;;;;;;5095383;28;19954;-59
2023/08/19 08:23:56;;;;;;;;;;;19.00;65.50;;;;;;5095606;28;20008;-59
2023/08/19 08:26:23;;;;;;;;;;;19.00;65.90;;;;;;5095365;28;19974;-59
2023/08/19 08:28:50;;;;;;;;;;;19.00;66.50;;;;;;5095035;28;20017;-58
2023/08/19 08:31:17;;;;;;;;;;;19.00;65.90;;;;;;5095340;28;19924;-59
2023/08/19 08:33:44;;;;;;;;;;;19.10;65.90;;;;;;5094782;28;19928;-59
2023/08/19 08:36:11;;;;;;;;;;;19.10;65.90;;;;;;5094906;28;19967;-59
2023/08/19 08:38:38;;;;;;;;;;;19.10;65.90;;;;;;5094304;28;20295;-61
2023/08/19 08:41:08;;;;;;;;;;;19.10;66.50;;;;;;5095056;28;19928;-59
2023/08/19 08:43:37;;;;;;;;;;;19.10;66.10;;;;;;5095232;28;19955;-59
2023/08/19 08:46:04;;;;;;;;;;;19.20;66.30;;;;;;5093574;28;19928;-60
2023/08/19 08:48:31;;;;;;;;;;;19.20;65.40;;;;;;5093762;28;20001;-59
2023/08/19 08:50:58;;;;;;;;;;;19.20;66.30;;;;;;5094682;28;19946;-59
2023/08/19 08:53:27;;;;;;;;;;;19.30;66.90;;;;;;5094589;28;20002;-59
2023/08/19 08:55:54;;;;;;;;;;;19.30;67.10;;;;;;5094275;28;19928;-59
2023/08/19 08:58:21;;;;;;;;;;;19.30;66.40;;;;;;5094616;28;19924;-59
2023/08/19 09:00:49;;;;;;;;;;;19.40;66.30;;;;;;5094769;28;19924;-59
2023/08/19 09:03:19;;;;;;;;;;;19.40;66.50;;;;;;5094124;28;19969;-59
2023/08/19 09:05:48;;;;;;;;;;;19.50;66.10;;;;;;5094927;28;19924;-59
2023/08/19 09:08:17;;;;;;;;;;;19.50;66.20;;;;;;5094384;28;19924;-59
2023/08/19 09:10:45;;;;;;;;;;;19.50;65.70;;;;;;5094071;28;19924;-60
2023/08/19 09:13:13;;;;;;;;;;;19.60;65.00;;;;;;5094876;28;19983;-60
2023/08/19 09:15:40;;;;;;;;;;;19.60;66.20;;;;;;5094435;28;20019;-59
2023/08/19 09:18:07;;;;;;;;;;;19.60;66.00;;;;;;5094465;28;19924;-59
2023/08/19 09:20:34;;;;;;;;;;;19.60;65.80;;;;;;5093796;28;19924;-59
2023/08/19 09:23:06;;;;;;;;;;;19.70;65.60;;;;;;5093605;28;20379;-59
2023/08/19 09:25:35;;;;;;;;;;;19.70;65.50;;;;;;5094260;28;19924;-59
2023/08/19 09:28:02;;;;;;;;;;;19.70;64.90;;;;;;5093980;28;20432;-59
2023/08/19 09:30:33;;;;;;;;;;;19.80;65.00;;;;;;5093232;28;20330;-59
2023/08/19 09:33:01;;;;;;;;;;;19.80;64.90;;;;;;5093854;28;20372;-59
2023/08/19 09:35:36;;;;;;;;;;;19.80;65.10;;;;;;5093723;28;20390;-59
2023/08/19 09:38:20;;;;;;;;;;;19.80;65.20;;;;;;5078864;28;19924;-59
2023/08/19 09:40:56;;;;;;;;;;;19.90;65.50;;;;;;5093873;28;19932;-59
2023/08/19 09:43:23;;;;;;;;;;;19.90;64.90;;;;;;5093751;28;19970;-60
2023/08/19 09:45:50;;;;;;;;;;;20.00;65.60;;;;;;5093602;28;19924;-60
2023/08/19 09:48:17;;;;;;;;;;;20.00;64.90;;;;;;5093616;28;19924;-59
2023/08/19 09:50:44;;;;;;;;;;;20.00;64.30;;;;;;5094183;28;19975;-59
2023/08/19 09:53:14;;;;;;;;;;;20.00;64.70;;;;;;5093640;28;20441;-59
2023/08/19 09:55:44;;;;;;;;;;;20.10;64.60;;;;;;5093375;28;20015;-59
2023/08/19 09:58:11;;;;;;;;;;;20.10;64.70;;;;;;5092655;28;19924;-59
2023/08/19 10:00:39;;;;;;;;;;;20.10;65.10;;;;;;5093503;28;20415;-59
2023/08/19 10:03:06;;;;;;;;;;;20.20;65.30;;;;;;5091881;28;20418;-59
2023/08/19 10:05:40;;;;;;;;;;;20.20;65.60;;;;;;5093276;28;19924;-59
2023/08/19 10:08:08;;;;;;;;;;;20.20;64.50;;;;;;5093463;28;19955;-60
2023/08/19 10:10:37;;;;;;;;;;;20.30;64.30;;;;;;5093344;28;19967;-59
2023/08/19 10:13:04;;;;;;;;;;;20.30;64.20;;;;;;5092765;28;20360;-60
2023/08/19 10:15:32;;;;;;;;;;;20.30;64.60;;;;;;5093869;28;19969;-59
2023/08/19 10:18:02;;;;;;;;;;;20.30;64.40;;;;;;5093284;28;19924;-60
2023/08/19 10:20:31;;;;;;;;;;;20.40;64.80;;;;;;5093710;28;19924;-60
2023/08/19 10:23:01;;;;;;;;;;;20.40;63.60;;;;;;5093360;28;19932;-59
2023/08/19 10:25:28;;;;;;;;;;;20.40;63.60;;;;;;5093679;28;19963;-59
2023/08/19 10:28:06;;;;;;;;;;;20.40;63.40;;;;;;5093200;28;19969;-60
2023/08/19 10:30:33;;;;;;;;;;;20.40;63.50;;;;;;5093434;28;19932;-59
2023/08/19 10:33:07;;;;;;;;;;;20.50;63.80;;;;;;5093628;28;20283;-60
2023/08/19 10:35:54;;;;;;;;;;;20.50;64.10;;;;;;5093203;28;19951;-59
2023/08/19 10:38:22;;;;;;;;;;;20.50;63.70;;;;;;5093288;28;19924;-59
2023/08/19 10:41:00;;;;;;;;;;;20.50;63.00;;;;;;5093313;28;19924;-59
2023/08/19 10:43:27;;;;;;;;;;;20.50;63.40;;;;;;5093668;28;19931;-59
2023/08/19 10:46:00;;;;;;;;;;;20.50;63.90;;;;;;5091431;28;20356;-59
2023/08/19 10:48:33;;;;;;;;;;;20.60;64.20;;;;;;5093407;28;19928;-60
2023/08/19 10:51:00;;;;;;;;;;;20.60;64.10;;;;;;5093134;28;19924;-60
2023/08/19 10:53:27;;;;;;;;;;;20.60;63.50;;;;;;5093031;28;19967;-59
2023/08/19 10:55:54;;;;;;;;;;;20.70;63.70;;;;;;5092851;28;20007;-59
2023/08/19 10:58:22;;;;;;;;;;;20.70;64.10;;;;;;5093518;28;19977;-60
2023/08/19 11:00:49;;;;;;;;;;;20.70;63.60;;;;;;5093141;28;20396;-59
2023/08/19 11:03:16;;;;;;;;;;;20.70;63.60;;;;;;5093113;28;20296;-60
2023/08/19 11:05:50;;;;;;;;;;;20.80;63.60;;;;;;5093320;28;19970;-59
2023/08/19 11:08:17;;;;;;;;;;;20.80;63.30;;;;;;5092926;28;19967;-60
2023/08/19 11:10:45;;;;;;;;;;;20.80;63.10;;;;;;5094879;28;19982;-59
2023/08/19 11:13:13;;;;;;;;;;;20.80;63.20;;;;;;5096652;28;20013;-60
2023/08/19 11:15:40;;;;;;;;;;;20.80;63.50;;;;;;5096659;28;20373;-59
2023/08/19 11:18:07;;;;;;;;;;;20.90;63.30;;;;;;5095076;28;19959;-60
2023/08/19 11:20:35;;;;;;;;;;;20.80;62.80;;;;;;5096564;28;20395;-59
2023/08/19 11:23:02;;;;;;;;;;;20.80;63.40;;;;;;5095388;28;19971;-59
2023/08/19 11:25:34;;;;;;;;;;;20.80;62.70;;;;;;5096669;28;19928;-59
2023/08/19 11:28:01;;;;;;;;;;;20.80;63.30;;;;;;5096964;28;19924;-59
2023/08/19 11:30:29;;;;;;;;;;;20.80;62.70;;;;;;5096651;28;19924;-59
2023/08/19 11:32:57;;;;;;;;;;;20.80;62.90;;;;;;5096597;28;19924;-60
2023/08/19 11:35:27;;;;;;;;;;;20.80;62.90;;;;;;5096531;28;20288;-59
2023/08/19 11:37:54;;;;;;;;;;;20.80;62.50;;;;;;5095928;28;19927;-59
2023/08/19 11:40:21;;;;;;;;;;;20.80;62.00;;;;;;5096781;28;19924;-59
2023/08/19 11:43:08;;;;;;;;;;;20.80;62.20;;;;;;5096553;28;19947;-59
2023/08/19 11:45:37;;;;;;;;;;;20.80;62.30;;;;;;5095884;28;20380;-59
2023/08/19 11:48:05;;;;;;;;;;;20.80;62.10;;;;;;5096357;28;19924;-60
2023/08/19 11:50:34;;;;;;;;;;;20.90;62.80;;;;;;5096369;28;19924;-59
2023/08/19 11:53:05;;;;;;;;;;;20.90;62.60;;;;;;5095907;28;19924;-60
2023/08/19 11:55:32;;;;;;;;;;;20.90;62.40;;;;;;5095064;28;19924;-59
2023/08/19 11:58:02;;;;;;;;;;;20.80;62.20;;;;;;5095653;28;19982;-60
2023/08/19 12:00:29;;;;;;;;;;;20.90;62.60;;;;;;5095795;28;19928;-59
2023/08/19 12:02:56;;;;;;;;;;;20.80;62.80;;;;;;5095901;28;19967;-60
2023/08/19 12:05:25;;;;;;;;;;;20.80;63.20;;;;;;5095543;28;20010;-60
2023/08/19 12:07:52;;;;;;;;;;;20.80;63.10;;;;;;5095883;28;20471;-59
2023/08/19 12:10:19;;;;;;;;;;;20.80;62.10;;;;;;5095497;28;19928;-60
2023/08/19 12:12:57;;;;;;;;;;;20.90;62.00;;;;;;5095378;28;19924;-59
2023/08/19 12:15:24;;;;;;;;;;;20.90;62.90;;;;;;5095551;28;19978;-60
2023/08/19 12:17:51;;;;;;;;;;;20.90;63.20;;;;;;5095503;28;20334;-60
2023/08/19 12:20:18;;;;;;;;;;;20.90;62.70;;;;;;5095733;28;19977;-60
2023/08/19 12:22:45;;;;;;;;;;;20.90;62.70;;;;;;5095698;28;19993;-60
2023/08/19 12:25:14;;;;;;;;;;;21.00;62.60;;;;;;5095242;28;19924;-60
2023/08/19 12:27:41;;;;;;;;;;;21.00;62.60;;;;;;5094575;28;20367;-61
2023/08/19 12:30:08;;;;;;;;;;;20.90;63.00;;;;;;5095501;28;19925;-61
2023/08/19 12:32:35;;;;;;;;;;;20.90;62.70;;;;;;5095508;28;19924;-61
2023/08/19 12:35:04;;;;;;;;;;;20.90;62.80;;;;;;5095397;28;19924;-61
2023/08/19 12:37:31;;;;;;;;;;;20.90;63.30;;;;;;5094553;28;19924;-61
2023/08/19 12:39:58;;;;;;;;;;;20.90;63.00;;;;;;5094884;28;19924;-61
2023/08/19 12:42:25;;;;;;;;;;;20.90;63.40;;;;;;5094952;28;19924;-61
2023/08/19 12:45:12;;;;;;;;;;;20.90;62.80;;;;;;5095233;28;19932;-61
2023/08/19 12:47:40;;;;;;;;;;;21.00;63.40;;;;;;5094869;28;19924;-61
2023/08/19 12:50:08;;;;;;;;;;;21.00;63.60;;;;;;5095071;28;19924;-61
2023/08/19 12:52:35;;;;;;;;;;;21.00;63.10;;;;;;5094911;28;19951;-61
2023/08/19 12:55:03;;;;;;;;;;;21.00;63.40;;;;;;5095035;28;19984;-61
2023/08/19 12:57:30;;;;;;;;;;;21.10;63.30;;;;;;5093186;28;20437;-61
2023/08/19 12:59:58;;;;;;;;;;;21.10;63.10;;;;;;5094904;28;19928;-61
2023/08/19 13:02:25;;;;;;;;;;;21.10;63.30;;;;;;5094627;28;19924;-61
2023/08/19 13:04:56;;;;;;;;;;;21.10;63.50;;;;;;5094721;28;19924;-61
2023/08/19 13:07:23;;;;;;;;;;;21.10;62.80;;;;;;5094772;28;20372;-61
2023/08/19 13:09:50;;;;;;;;;;;21.10;63.40;;;;;;5094408;28;20400;-61
2023/08/19 13:12:17;;;;;;;;;;;21.10;61.80;;;;;;5094452;28;19966;-61
2023/08/19 13:14:44;;;;;;;;;;;21.10;62.70;;;;;;5094214;28;19931;-61
2023/08/19 13:17:11;;;;;;;;;;;21.10;63.50;;;;;;5094029;28;19989;-61
2023/08/19 13:19:38;;;;;;;;;;;21.10;63.70;;;;;;5094693;28;19963;-61
2023/08/19 13:22:05;;;;;;;;;;;21.10;63.50;;;;;;5094507;28;20018;-61
2023/08/19 13:24:32;;;;;;;;;;;21.10;61.60;;;;;;5094677;28;19993;-61
2023/08/19 13:27:01;;;;;;;;;;;21.20;62.40;;;;;;5093420;28;20307;-61
2023/08/19 13:29:28;;;;;;;;;;;21.20;62.20;;;;;;5093998;28;20380;-61
2023/08/19 13:31:55;;;;;;;;;;;21.20;62.10;;;;;;5093942;28;20375;-60
2023/08/19 13:34:22;;;;;;;;;;;21.20;63.20;;;;;;5093261;28;19959;-61
2023/08/19 13:36:49;;;;;;;;;;;21.20;62.10;;;;;;5094388;28;19993;-61
2023/08/19 13:39:16;;;;;;;;;;;21.20;62.40;;;;;;5094331;28;19924;-61
2023/08/19 13:41:43;;;;;;;;;;;21.30;62.10;;;;;;5093879;28;20376;-60
2023/08/19 13:44:09;;;;;;;;;;;21.30;62.50;;;;;;5094180;28;19925;-61
2023/08/19 13:46:36;;;;;;;;;;;21.30;62.50;;;;;;5093520;28;19971;-64
2023/08/19 13:49:04;;;;;;;;;;;21.30;62.40;;;;;;5093902;28;19931;-62
2023/08/19 13:51:31;;;;;;;;;;;21.20;62.40;;;;;;5094402;28;19928;-61
2023/08/19 13:53:58;;;;;;;;;;;21.20;62.00;;;;;;5093730;28;19924;-62
2023/08/19 13:56:25;;;;;;;;;;;21.20;62.10;;;;;;5093640;28;20425;-61
2023/08/19 13:58:52;;;;;;;;;;;21.20;62.00;;;;;;5093897;28;20375;-62
2023/08/19 14:01:19;;;;;;;;;;;21.20;62.40;;;;;;5093700;28;20388;-64
2023/08/19 14:03:46;;;;;;;;;;;21.20;61.30;;;;;;5094088;28;19924;-61
2023/08/19 14:06:13;;;;;;;;;;;21.30;66.80;;;;;;5093777;28;19997;-61
2023/08/19 14:08:40;;;;;;;;;;;21.50;73.50;;;;;;5093511;28;19953;-62
2023/08/19 14:11:08;;;;;;;;;;;21.80;76.00;;;;;;5093706;28;19924;-65
2023/08/19 14:13:35;;;;;;;;;;;22.10;77.00;;;;;;5093786;28;20027;-63
2023/08/19 14:16:02;;;;;;;;;;;22.50;77.50;;;;;;5093868;28;19924;-64
2023/08/19 14:18:29;;;;;;;;;;;22.80;77.20;;;;;;5093701;28;20010;-65
2023/08/19 14:20:56;;;;;;;;;;;23.00;76.80;;;;;;5093518;28;20011;-66